sensor_id;sensor_type;location;lat;lon;timestamp;pressure;altitude;pressure_sealevel;temperature;humidity
26192;BME280;13935;55.672;37.764;2022-09-03T00:00:53;100498.25;;;9.44;88.43
26192;BME280;13935;55.672;37.764;2022-09-03T00:01:58;100503.41;;;9.46;88.26
26192;BME280;13935;55.672;37.764;2022-09-03T00:03:19;100498.63;;;9.43;88.01
26192;BME280;13935;55.672;37.764;2022-09-03T00:04:30;100506.47;;;9.41;88.12
26192;BME280;13935;55.672;37.764;2022-09-03T00:07:15;100507.53;;;9.36;88.80
26192;BME280;13935;55.672;37.764;2022-09-03T00:08:36;100507.13;;;9.34;87.99
26192;BME280;13935;55.672;37.764;2022-09-03T00:09:47;100510.69;;;9.35;88.65
26192;BME280;13935;55.672;37.764;2022-09-03T00:10:56;100507.91;;;9.35;88.61
26192;BME280;13935;55.672;37.764;2022-09-03T00:12:10;100512.56;;;9.31;88.72
26192;BME280;13935;55.672;37.764;2022-09-03T00:13:26;100514.19;;;9.32;89.13
26192;BME280;13935;55.672;37.764;2022-09-03T00:14:46;100523.69;;;9.34;89.04
26192;BME280;13935;55.672;37.764;2022-09-03T00:15:56;100518.97;;;9.35;89.21
26192;BME280;13935;55.672;37.764;2022-09-03T00:17:04;100523.78;;;9.38;88.96
26192;BME280;13935;55.672;37.764;2022-09-03T00:18:16;100523.69;;;9.34;88.89
26192;BME280;13935;55.672;37.764;2022-09-03T00:19:28;100528.47;;;9.37;89.05
26192;BME280;13935;55.672;37.764;2022-09-03T00:20:45;100526.75;;;9.29;88.73
26192;BME280;13935;55.672;37.764;2022-09-03T00:21:57;100533.22;;;9.37;88.71
26192;BME280;13935;55.672;37.764;2022-09-03T00:23:06;100533.91;;;9.34;89.28
26192;BME280;13935;55.672;37.764;2022-09-03T00:24:12;100530.00;;;9.35;89.33
26192;BME280;13935;55.672;37.764;2022-09-03T00:25:26;100537.78;;;9.29;89.71
26192;BME280;13935;55.672;37.764;2022-09-03T00:26:33;100529.13;;;9.31;89.37
26192;BME280;13935;55.672;37.764;2022-09-03T00:27:42;100535.38;;;9.28;89.88
26192;BME280;13935;55.672;37.764;2022-09-03T00:29:15;100536.53;;;9.27;89.75
26192;BME280;13935;55.672;37.764;2022-09-03T00:30:17;100541.63;;;9.25;90.03
26192;BME280;13935;55.672;37.764;2022-09-03T00:31:31;100539.56;;;9.22;89.78
26192;BME280;13935;55.672;37.764;2022-09-03T00:35:30;100545.53;;;9.24;90.28
26192;BME280;13935;55.672;37.764;2022-09-03T00:36:41;100552.31;;;9.26;90.71
26192;BME280;13935;55.672;37.764;2022-09-03T00:37:49;100553.38;;;9.22;90.75
26192;BME280;13935;55.672;37.764;2022-09-03T00:38:52;100552.66;;;9.25;90.91
26192;BME280;13935;55.672;37.764;2022-09-03T00:40:02;100563.34;;;9.26;90.68
26192;BME280;13935;55.672;37.764;2022-09-03T00:41:37;100560.06;;;9.21;90.45
26192;BME280;13935;55.672;37.764;2022-09-03T00:42:57;100568.53;;;9.13;91.80
26192;BME280;13935;55.672;37.764;2022-09-03T00:44:32;100567.38;;;9.14;92.26
26192;BME280;13935;55.672;37.764;2022-09-03T00:54:14;100565.69;;;9.09;93.23
26192;BME280;13935;55.672;37.764;2022-09-03T01:00:06;100579.78;;;9.04;93.66
26192;BME280;13935;55.672;37.764;2022-09-03T01:06:48;100580.59;;;9.05;94.48
26192;BME280;13935;55.672;37.764;2022-09-03T01:11:27;100572.66;;;9.03;94.36
26192;BME280;13935;55.672;37.764;2022-09-03T01:13:14;100578.91;;;9.00;94.67
26192;BME280;13935;55.672;37.764;2022-09-03T01:14:29;100572.31;;;9.05;94.38
26192;BME280;13935;55.672;37.764;2022-09-03T01:17:19;100573.22;;;8.93;95.00
26192;BME280;13935;55.672;37.764;2022-09-03T01:29:33;100579.53;;;8.94;96.35
26192;BME280;13935;55.672;37.764;2022-09-03T01:30:49;100580.34;;;8.94;96.04
26192;BME280;13935;55.672;37.764;2022-09-03T01:32:12;100581.94;;;8.95;96.57
26192;BME280;13935;55.672;37.764;2022-09-03T01:33:29;100577.94;;;8.93;96.47
26192;BME280;13935;55.672;37.764;2022-09-03T01:38:55;100586.38;;;8.84;97.70
26192;BME280;13935;55.672;37.764;2022-09-03T01:41:37;100590.16;;;8.76;98.69
26192;BME280;13935;55.672;37.764;2022-09-03T01:46:00;100596.66;;;8.68;99.40
26192;BME280;13935;55.672;37.764;2022-09-03T01:49:28;100589.97;;;8.69;99.41
26192;BME280;13935;55.672;37.764;2022-09-03T01:52:02;100593.88;;;8.68;99.75
26192;BME280;13935;55.672;37.764;2022-09-03T01:53:23;100597.81;;;8.67;99.79
26192;BME280;13935;55.672;37.764;2022-09-03T01:57:42;100608.66;;;8.60;100.00
26192;BME280;13935;55.672;37.764;2022-09-03T01:59:02;100612.75;;;8.66;100.00
26192;BME280;13935;55.672;37.764;2022-09-03T02:00:28;100608.75;;;8.64;100.00
26192;BME280;13935;55.672;37.764;2022-09-03T02:01:41;100615.88;;;8.65;100.00
26192;BME280;13935;55.672;37.764;2022-09-03T02:02:49;100611.88;;;8.62;100.00
26192;BME280;13935;55.672;37.764;2022-09-03T02:03:53;100608.66;;;8.60;100.00
26192;BME280;13935;55.672;37.764;2022-09-03T02:06:14;100618.06;;;8.59;100.00
26192;BME280;13935;55.672;37.764;2022-09-03T02:07:16;100622.16;;;8.65;100.00
26192;BME280;13935;55.672;37.764;2022-09-03T02:08:20;100624.59;;;8.67;100.00
26192;BME280;13935;55.672;37.764;2022-09-03T02:09:23;100616.66;;;8.65;100.00
26192;BME280;13935;55.672;37.764;2022-09-03T02:10:46;100623.16;;;8.57;100.00
26192;BME280;13935;55.672;37.764;2022-09-03T02:11:57;100620.41;;;8.57;100.00
26192;BME280;13935;55.672;37.764;2022-09-03T02:14:29;100628.22;;;8.55;100.00
26192;BME280;13935;55.672;37.764;2022-09-03T02:15:35;100623.59;;;8.59;100.00
26192;BME280;13935;55.672;37.764;2022-09-03T02:16:51;100618.88;;;8.60;100.00
26192;BME280;13935;55.672;37.764;2022-09-03T02:17:59;100628.22;;;8.55;100.00
26192;BME280;13935;55.672;37.764;2022-09-03T02:19:13;100623.16;;;8.57;100.00
26192;BME280;13935;55.672;37.764;2022-09-03T02:20:20;100639.63;;;8.54;100.00
26192;BME280;13935;55.672;37.764;2022-09-03T02:21:27;100636.50;;;8.55;100.00
26192;BME280;13935;55.672;37.764;2022-09-03T02:22:33;100636.75;;;8.51;100.00
26192;BME280;13935;55.672;37.764;2022-09-03T02:23:38;100642.75;;;8.52;100.00
26192;BME280;13935;55.672;37.764;2022-09-03T02:24:42;100634.88;;;8.54;100.00
26192;BME280;13935;55.672;37.764;2022-09-03T02:25:49;100636.75;;;8.51;100.00
26192;BME280;13935;55.672;37.764;2022-09-03T02:26:58;100642.28;;;8.51;100.00
26192;BME280;13935;55.672;37.764;2022-09-03T02:28:04;100644.59;;;8.49;100.00
26192;BME280;13935;55.672;37.764;2022-09-03T02:29:19;100642.63;;;8.49;100.00
26192;BME280;13935;55.672;37.764;2022-09-03T02:30:22;100642.28;;;8.51;100.00
26192;BME280;13935;55.672;37.764;2022-09-03T02:31:26;100640.31;;;8.51;100.00
26192;BME280;13935;55.672;37.764;2022-09-03T02:32:31;100641.13;;;8.52;100.00
26192;BME280;13935;55.672;37.764;2022-09-03T02:33:37;100648.50;;;8.48;100.00
26192;BME280;13935;55.672;37.764;2022-09-03T02:34:45;100640.31;;;8.51;100.00
26192;BME280;13935;55.672;37.764;2022-09-03T02:36:11;100648.16;;;8.49;100.00
26192;BME280;13935;55.672;37.764;2022-09-03T02:37:17;100640.66;;;8.50;100.00
26192;BME280;13935;55.672;37.764;2022-09-03T02:38:23;100646.66;;;8.52;100.00
26192;BME280;13935;55.672;37.764;2022-09-03T02:39:32;100638.38;;;8.52;100.00
26192;BME280;13935;55.672;37.764;2022-09-03T02:40:59;100648.69;;;8.54;100.00
26192;BME280;13935;55.672;37.764;2022-09-03T02:42:03;100645.91;;;8.54;100.00
26192;BME280;13935;55.672;37.764;2022-09-03T02:43:16;100652.59;;;8.53;100.00
26192;BME280;13935;55.672;37.764;2022-09-03T02:44:32;100651.91;;;8.56;100.00
26192;BME280;13935;55.672;37.764;2022-09-03T02:45:44;100654.19;;;8.54;100.00
26192;BME280;13935;55.672;37.764;2022-09-03T02:46:52;100652.59;;;8.53;100.00
26192;BME280;13935;55.672;37.764;2022-09-03T02:47:57;100663.63;;;8.53;100.00
26192;BME280;13935;55.672;37.764;2022-09-03T02:49:02;100660.63;;;8.58;100.00
26192;BME280;13935;55.672;37.764;2022-09-03T02:50:07;100654.66;;;8.56;100.00
26192;BME280;13935;55.672;37.764;2022-09-03T02:51:10;100659.91;;;8.61;100.00
26192;BME280;13935;55.672;37.764;2022-09-03T02:52:15;100659.00;;;8.57;100.00
26192;BME280;13935;55.672;37.764;2022-09-03T02:53:21;100653.50;;;8.57;100.00
26192;BME280;13935;55.672;37.764;2022-09-03T02:54:26;100657.88;;;8.58;100.00
26192;BME280;13935;55.672;37.764;2022-09-03T02:55:35;100661.50;;;8.62;100.00
26192;BME280;13935;55.672;37.764;2022-09-03T02:56:37;100657.88;;;8.58;100.00
26192;BME280;13935;55.672;37.764;2022-09-03T02:57:40;100662.09;;;8.56;100.00
26192;BME280;13935;55.672;37.764;2022-09-03T02:58:43;100661.50;;;8.62;100.00
26192;BME280;13935;55.672;37.764;2022-09-03T02:59:47;100666.66;;;8.64;100.00
26192;BME280;13935;55.672;37.764;2022-09-03T03:00:52;100662.28;;;8.63;100.00
26192;BME280;13935;55.672;37.764;2022-09-03T03:02:00;100658.75;;;8.62;100.00
26192;BME280;13935;55.672;37.764;2022-09-03T03:03:05;100663.81;;;8.60;100.00
26192;BME280;13935;55.672;37.764;2022-09-03T03:04:08;100666.28;;;8.65;100.00
26192;BME280;13935;55.672;37.764;2022-09-03T03:05:14;100664.88;;;8.71;100.00
26192;BME280;13935;55.672;37.764;2022-09-03T03:06:22;100661.59;;;8.66;100.00
26192;BME280;13935;55.672;37.764;2022-09-03T03:07:28;100671.81;;;8.65;100.00
26192;BME280;13935;55.672;37.764;2022-09-03T03:08:34;100660.97;;;8.72;100.00
26192;BME280;13935;55.672;37.764;2022-09-03T03:09:38;100662.84;;;8.68;100.00
26192;BME280;13935;55.672;37.764;2022-09-03T03:10:41;100662.13;;;8.71;100.00
26192;BME280;13935;55.672;37.764;2022-09-03T03:11:48;100674.53;;;8.77;100.00
26192;BME280;13935;55.672;37.764;2022-09-03T03:12:51;100676.09;;;8.78;100.00
26192;BME280;13935;55.672;37.764;2022-09-03T03:13:53;100672.00;;;8.72;100.00
26192;BME280;13935;55.672;37.764;2022-09-03T03:14:56;100677.50;;;8.72;99.73
26192;BME280;13935;55.672;37.764;2022-09-03T03:16:04;100676.00;;;8.75;100.00
26192;BME280;13935;55.672;37.764;2022-09-03T03:17:10;100674.44;;;8.74;99.99
26192;BME280;13935;55.672;37.764;2022-09-03T03:18:14;100677.72;;;8.79;99.78
26192;BME280;13935;55.672;37.764;2022-09-03T03:19:18;100676.66;;;8.84;99.56
26192;BME280;13935;55.672;37.764;2022-09-03T03:20:21;100674.69;;;8.84;99.43
26192;BME280;13935;55.672;37.764;2022-09-03T03:21:24;100678.84;;;8.78;99.52
26192;BME280;13935;55.672;37.764;2022-09-03T03:22:27;100679.78;;;8.82;99.40
26192;BME280;13935;55.672;37.764;2022-09-03T03:23:32;100673.97;;;8.87;99.39
26192;BME280;13935;55.672;37.764;2022-09-03T03:24:34;100676.09;;;8.94;99.06
26192;BME280;13935;55.672;37.764;2022-09-03T03:25:39;100676.19;;;8.97;98.94
26192;BME280;13935;55.672;37.764;2022-09-03T03:26:43;100671.41;;;8.94;98.66
26192;BME280;13935;55.672;37.764;2022-09-03T03:27:46;100674.69;;;9.00;98.31
26192;BME280;13935;55.672;37.764;2022-09-03T03:28:49;100684.75;;;8.92;98.37
26192;BME280;13935;55.672;37.764;2022-09-03T03:29:58;100682.00;;;8.92;98.46
26192;BME280;13935;55.672;37.764;2022-09-03T03:31:19;100678.94;;;8.97;98.29
26192;BME280;13935;55.672;37.764;2022-09-03T03:32:25;100675.03;;;8.98;97.81
26192;BME280;13935;55.672;37.764;2022-09-03T03:33:43;100677.19;;;9.05;97.51
26192;BME280;13935;55.672;37.764;2022-09-03T03:34:46;100680.56;;;8.98;97.92
26192;BME280;13935;55.672;37.764;2022-09-03T03:35:50;100679.97;;;8.89;98.40
26192;BME280;13935;55.672;37.764;2022-09-03T03:36:55;100684.38;;;8.94;98.44
26192;BME280;13935;55.672;37.764;2022-09-03T03:38:01;100680.38;;;8.91;98.18
26192;BME280;13935;55.672;37.764;2022-09-03T03:39:04;100679.69;;;8.94;98.15
26192;BME280;13935;55.672;37.764;2022-09-03T03:40:12;100683.88;;;8.88;98.08
26192;BME280;13935;55.672;37.764;2022-09-03T03:41:17;100691.22;;;8.84;99.41
26192;BME280;13935;55.672;37.764;2022-09-03T03:42:20;100688.47;;;8.84;99.28
26192;BME280;13935;55.672;37.764;2022-09-03T03:43:23;100693.47;;;8.94;99.05
26192;BME280;13935;55.672;37.764;2022-09-03T03:44:25;100680.66;;;9.02;99.02
26192;BME280;13935;55.672;37.764;2022-09-03T03:45:30;100687.13;;;9.09;98.35
26192;BME280;13935;55.672;37.764;2022-09-03T03:46:37;100691.09;;;9.08;98.05
26192;BME280;13935;55.672;37.764;2022-09-03T03:47:41;100695.50;;;9.13;97.66
26192;BME280;13935;55.672;37.764;2022-09-03T03:48:47;100691.16;;;9.12;97.18
26192;BME280;13935;55.672;37.764;2022-09-03T03:49:49;100689.75;;;9.18;97.04
26192;BME280;13935;55.672;37.764;2022-09-03T03:50:54;100693.75;;;9.20;96.56
26192;BME280;13935;55.672;37.764;2022-09-03T03:51:56;100694.44;;;9.17;97.03
26192;BME280;13935;55.672;37.764;2022-09-03T03:53:00;100690.63;;;9.22;97.14
26192;BME280;13935;55.672;37.764;2022-09-03T03:54:03;100690.63;;;9.22;96.91
26192;BME280;13935;55.672;37.764;2022-09-03T03:55:07;100690.63;;;9.22;96.49
26192;BME280;13935;55.672;37.764;2022-09-03T03:56:14;100697.75;;;9.23;96.67
26192;BME280;13935;55.672;37.764;2022-09-03T03:57:19;100700.59;;;9.26;96.15
26192;BME280;13935;55.672;37.764;2022-09-03T03:58:22;100697.28;;;9.36;95.61
26192;BME280;13935;55.672;37.764;2022-09-03T03:59:26;100688.72;;;9.41;95.51
26192;BME280;13935;55.672;37.764;2022-09-03T04:00:28;100694.56;;;9.55;95.18
26192;BME280;13935;55.672;37.764;2022-09-03T04:01:31;100693.50;;;9.59;94.55
26192;BME280;13935;55.672;37.764;2022-09-03T04:02:33;100700.97;;;9.59;94.23
26192;BME280;13935;55.672;37.764;2022-09-03T04:03:40;100700.34;;;10.56;91.99
26192;BME280;13935;55.672;37.764;2022-09-03T04:04:44;100701.63;;;12.03;85.11
26192;BME280;13935;55.672;37.764;2022-09-03T04:05:56;100704.47;;;13.08;76.67
26192;BME280;13935;55.672;37.764;2022-09-03T04:06:59;100698.41;;;14.03;71.67
26192;BME280;13935;55.672;37.764;2022-09-03T04:08:02;100699.16;;;14.78;66.88
26192;BME280;13935;55.672;37.764;2022-09-03T04:09:05;100694.84;;;15.64;61.86
26192;BME280;13935;55.672;37.764;2022-09-03T04:10:09;100701.91;;;16.17;59.20
26192;BME280;13935;55.672;37.764;2022-09-03T04:11:15;100708.06;;;16.77;56.90
26192;BME280;13935;55.672;37.764;2022-09-03T04:12:17;100699.91;;;17.61;53.30
26192;BME280;13935;55.672;37.764;2022-09-03T04:13:22;100700.50;;;18.19;50.17
26192;BME280;13935;55.672;37.764;2022-09-03T04:14:25;100698.97;;;18.48;50.14
26192;BME280;13935;55.672;37.764;2022-09-03T04:15:28;100698.88;;;18.84;48.52
26192;BME280;13935;55.672;37.764;2022-09-03T04:16:33;100707.06;;;19.28;46.13
26192;BME280;13935;55.672;37.764;2022-09-03T04:17:35;100706.97;;;19.58;45.76
26192;BME280;13935;55.672;37.764;2022-09-03T04:18:38;100708.28;;;19.27;45.84
26192;BME280;13935;55.672;37.764;2022-09-03T04:19:40;100709.47;;;19.26;45.77
26192;BME280;13935;55.672;37.764;2022-09-03T04:20:42;100707.03;;;20.00;44.52
26192;BME280;13935;55.672;37.764;2022-09-03T04:21:46;100710.16;;;20.44;42.40
26192;BME280;13935;55.672;37.764;2022-09-03T04:22:49;100702.47;;;20.48;42.46
26192;BME280;13935;55.672;37.764;2022-09-03T04:23:53;100714.22;;;21.17;41.76
26192;BME280;13935;55.672;37.764;2022-09-03T04:24:55;100709.56;;;21.27;40.52
26192;BME280;13935;55.672;37.764;2022-09-03T04:25:58;100708.13;;;21.19;40.34
26192;BME280;13935;55.672;37.764;2022-09-03T04:27:00;100712.69;;;21.13;40.31
26192;BME280;13935;55.672;37.764;2022-09-03T04:28:02;100706.63;;;21.65;39.63
26192;BME280;13935;55.672;37.764;2022-09-03T04:29:07;100711.31;;;22.16;39.03
26192;BME280;13935;55.672;37.764;2022-09-03T04:30:11;100705.25;;;20.87;39.46
26192;BME280;13935;55.672;37.764;2022-09-03T04:31:18;100712.34;;;22.22;38.34
26192;BME280;13935;55.672;37.764;2022-09-03T04:32:20;100706.81;;;22.47;37.91
26192;BME280;13935;55.672;37.764;2022-09-03T04:33:41;100710.03;;;22.17;37.15
26192;BME280;13935;55.672;37.764;2022-09-03T04:34:43;100713.50;;;22.53;37.90
26192;BME280;13935;55.672;37.764;2022-09-03T04:35:45;100712.28;;;22.54;36.66
26192;BME280;13935;55.672;37.764;2022-09-03T04:36:47;100716.34;;;23.18;36.20
26192;BME280;13935;55.672;37.764;2022-09-03T04:37:53;100717.47;;;23.46;35.51
26192;BME280;13935;55.672;37.764;2022-09-03T04:38:58;100718.34;;;23.68;34.64
26192;BME280;13935;55.672;37.764;2022-09-03T04:40:00;100717.13;;;24.15;34.58
26192;BME280;13935;55.672;37.764;2022-09-03T04:41:05;100720.75;;;24.49;33.42
26192;BME280;13935;55.672;37.764;2022-09-03T04:42:07;100728.16;;;24.34;33.10
26192;BME280;13935;55.672;37.764;2022-09-03T04:43:12;100730.91;;;23.91;34.12
26192;BME280;13935;55.672;37.764;2022-09-03T04:44:14;100721.22;;;23.18;35.13
26192;BME280;13935;55.672;37.764;2022-09-03T04:45:17;100726.59;;;23.87;33.53
26192;BME280;13935;55.672;37.764;2022-09-03T04:46:26;100729.19;;;23.57;34.16
26192;BME280;13935;55.672;37.764;2022-09-03T04:47:29;100722.66;;;24.73;32.85
26192;BME280;13935;55.672;37.764;2022-09-03T04:48:33;100724.16;;;25.08;32.45
26192;BME280;13935;55.672;37.764;2022-09-03T04:49:38;100726.94;;;25.69;31.85
26192;BME280;13935;55.672;37.764;2022-09-03T04:50:40;100723.56;;;25.13;31.08
26192;BME280;13935;55.672;37.764;2022-09-03T04:51:42;100725.25;;;25.41;31.11
26192;BME280;13935;55.672;37.764;2022-09-03T04:52:45;100724.69;;;25.24;31.32
26192;BME280;13935;55.672;37.764;2022-09-03T04:53:53;100728.59;;;25.88;30.91
26192;BME280;13935;55.672;37.764;2022-09-03T04:54:57;100723.81;;;25.06;31.65
26192;BME280;13935;55.672;37.764;2022-09-03T04:56:00;100723.75;;;25.67;30.43
26192;BME280;13935;55.672;37.764;2022-09-03T04:57:03;100714.22;;;24.82;31.36
26192;BME280;13935;55.672;37.764;2022-09-03T04:58:05;100725.63;;;25.61;30.63
26192;BME280;13935;55.672;37.764;2022-09-03T04:59:10;100714.78;;;25.20;31.18
26192;BME280;13935;55.672;37.764;2022-09-03T05:00:13;100725.50;;;25.64;30.46
26192;BME280;13935;55.672;37.764;2022-09-03T05:01:21;100727.72;;;26.44;29.20
26192;BME280;13935;55.672;37.764;2022-09-03T05:02:23;100718.69;;;26.28;29.42
26192;BME280;13935;55.672;37.764;2022-09-03T05:03:26;100724.81;;;25.99;29.58
26192;BME280;13935;55.672;37.764;2022-09-03T05:04:28;100730.75;;;25.35;30.39
26192;BME280;13935;55.672;37.764;2022-09-03T05:05:54;100737.78;;;26.18;29.21
26192;BME280;13935;55.672;37.764;2022-09-03T05:06:56;100728.94;;;26.34;29.34
26192;BME280;13935;55.672;37.764;2022-09-03T05:07:59;100724.47;;;25.80;30.01
26192;BME280;13935;55.672;37.764;2022-09-03T05:09:03;100731.81;;;26.52;29.44
26192;BME280;13935;55.672;37.764;2022-09-03T05:10:08;100727.88;;;27.27;28.30
26192;BME280;13935;55.672;37.764;2022-09-03T05:11:11;100727.81;;;26.85;28.67
26192;BME280;13935;55.672;37.764;2022-09-03T05:12:13;100730.19;;;26.78;28.28
26192;BME280;13935;55.672;37.764;2022-09-03T05:13:15;100733.09;;;27.69;27.95
26192;BME280;13935;55.672;37.764;2022-09-03T05:14:18;100724.56;;;27.69;27.72
26192;BME280;13935;55.672;37.764;2022-09-03T05:15:20;100729.53;;;27.01;27.54
26192;BME280;13935;55.672;37.764;2022-09-03T05:16:29;100729.19;;;27.17;27.68
26192;BME280;13935;55.672;37.764;2022-09-03T05:17:31;100733.06;;;26.69;27.96
26192;BME280;13935;55.672;37.764;2022-09-03T05:18:38;100742.75;;;27.22;27.12
26192;BME280;13935;55.672;37.764;2022-09-03T05:19:40;100727.66;;;27.80;26.40
26192;BME280;13935;55.672;37.764;2022-09-03T05:20:42;100735.81;;;27.64;26.75
26192;BME280;13935;55.672;37.764;2022-09-03T05:21:44;100731.13;;;27.43;26.94
26192;BME280;13935;55.672;37.764;2022-09-03T05:22:47;100736.59;;;28.58;26.46
26192;BME280;13935;55.672;37.764;2022-09-03T05:23:50;100742.75;;;27.22;27.09
26192;BME280;13935;55.672;37.764;2022-09-03T05:24:53;100748.28;;;27.57;27.16
26192;BME280;13935;55.672;37.764;2022-09-03T05:25:58;100728.88;;;27.65;26.89
26192;BME280;13935;55.672;37.764;2022-09-03T05:27:01;100727.72;;;27.30;26.63
26192;BME280;13935;55.672;37.764;2022-09-03T05:28:03;100740.38;;;28.78;26.13
26192;BME280;13935;55.672;37.764;2022-09-03T05:29:06;100735.72;;;27.49;26.43
26192;BME280;13935;55.672;37.764;2022-09-03T05:30:09;100738.63;;;27.96;27.47
26192;BME280;13935;55.672;37.764;2022-09-03T05:31:14;100739.19;;;27.44;27.04
26192;BME280;13935;55.672;37.764;2022-09-03T05:32:17;100741.66;;;25.85;28.75
26192;BME280;13935;55.672;37.764;2022-09-03T05:33:19;100740.13;;;26.73;28.25
26192;BME280;13935;55.672;37.764;2022-09-03T05:34:25;100749.78;;;27.44;27.60
26192;BME280;13935;55.672;37.764;2022-09-03T05:35:27;100746.91;;;27.03;27.77
26192;BME280;13935;55.672;37.764;2022-09-03T05:36:33;100743.88;;;28.59;26.54
26192;BME280;13935;55.672;37.764;2022-09-03T05:37:37;100744.16;;;28.98;25.40
26192;BME280;13935;55.672;37.764;2022-09-03T05:38:41;100745.97;;;28.35;26.41
26192;BME280;13935;55.672;37.764;2022-09-03T05:39:43;100742.09;;;27.36;27.18
26192;BME280;13935;55.672;37.764;2022-09-03T05:40:45;100738.75;;;28.63;25.94
26192;BME280;13935;55.672;37.764;2022-09-03T05:41:48;100750.22;;;27.60;26.89
26192;BME280;13935;55.672;37.764;2022-09-03T05:42:55;100747.63;;;27.71;26.42
26192;BME280;13935;55.672;37.764;2022-09-03T05:43:59;100752.13;;;27.54;27.22
26192;BME280;13935;55.672;37.764;2022-09-03T05:45:02;100751.53;;;26.56;28.40
26192;BME280;13935;55.672;37.764;2022-09-03T05:46:07;100740.50;;;27.35;28.23
26192;BME280;13935;55.672;37.764;2022-09-03T05:47:10;100750.59;;;27.36;27.79
26192;BME280;13935;55.672;37.764;2022-09-03T05:48:12;100751.59;;;27.24;27.30
26192;BME280;13935;55.672;37.764;2022-09-03T05:49:14;100750.38;;;26.17;28.72
26192;BME280;13935;55.672;37.764;2022-09-03T05:50:17;100754.84;;;26.54;29.36
26192;BME280;13935;55.672;37.764;2022-09-03T05:51:19;100755.13;;;27.01;28.25
26192;BME280;13935;55.672;37.764;2022-09-03T05:52:21;100752.63;;;27.85;27.33
26192;BME280;13935;55.672;37.764;2022-09-03T05:53:24;100762.16;;;27.23;27.21
26192;BME280;13935;55.672;37.764;2022-09-03T05:54:26;100759.81;;;25.57;29.88
26192;BME280;13935;55.672;37.764;2022-09-03T05:55:28;100763.38;;;26.63;28.18
26192;BME280;13935;55.672;37.764;2022-09-03T05:56:31;100760.00;;;27.50;27.63
26192;BME280;13935;55.672;37.764;2022-09-03T05:57:34;100764.09;;;27.67;27.14
26192;BME280;13935;55.672;37.764;2022-09-03T05:58:40;100763.41;;;27.31;26.75
26192;BME280;13935;55.672;37.764;2022-09-03T05:59:44;100769.97;;;26.87;27.52
26192;BME280;13935;55.672;37.764;2022-09-03T06:00:46;100768.06;;;28.63;25.94
26192;BME280;13935;55.672;37.764;2022-09-03T06:01:48;100762.81;;;28.01;26.70
26192;BME280;13935;55.672;37.764;2022-09-03T06:02:55;100760.06;;;28.53;25.91
26192;BME280;13935;55.672;37.764;2022-09-03T06:05:04;100780.06;;;26.70;28.08
26192;BME280;13935;55.672;37.764;2022-09-03T06:06:07;100774.16;;;26.02;28.62
26192;BME280;13935;55.672;37.764;2022-09-03T06:07:09;100775.97;;;28.21;26.82
26192;BME280;13935;55.672;37.764;2022-09-03T06:08:12;100776.31;;;26.73;27.55
26192;BME280;13935;55.672;37.764;2022-09-03T06:09:19;100777.25;;;26.43;27.37
26192;BME280;13935;55.672;37.764;2022-09-03T06:10:24;100769.06;;;26.63;27.50
26192;BME280;13935;55.672;37.764;2022-09-03T06:11:34;100775.34;;;27.03;27.31
26192;BME280;13935;55.672;37.764;2022-09-03T06:12:40;100770.25;;;27.07;27.17
26192;BME280;13935;55.672;37.764;2022-09-03T06:13:42;100772.69;;;25.80;29.29
26192;BME280;13935;55.672;37.764;2022-09-03T06:14:44;100783.50;;;27.28;27.52
26192;BME280;13935;55.672;37.764;2022-09-03T06:15:46;100778.03;;;28.21;26.10
26192;BME280;13935;55.672;37.764;2022-09-03T06:16:49;100779.13;;;28.23;25.54
26192;BME280;13935;55.672;37.764;2022-09-03T06:17:53;100769.88;;;27.32;26.90
26192;BME280;13935;55.672;37.764;2022-09-03T06:18:55;100766.44;;;25.54;28.98
26192;BME280;13935;55.672;37.764;2022-09-03T06:19:57;100775.59;;;26.06;28.67
26192;BME280;13935;55.672;37.764;2022-09-03T06:21:05;100769.03;;;26.54;28.03
26192;BME280;13935;55.672;37.764;2022-09-03T06:22:07;100762.09;;;27.50;26.94
26192;BME280;13935;55.672;37.764;2022-09-03T06:23:09;100772.81;;;27.05;27.14
26192;BME280;13935;55.672;37.764;2022-09-03T06:24:15;100774.47;;;27.38;27.01
26192;BME280;13935;55.672;37.764;2022-09-03T06:25:18;100774.88;;;28.19;26.02
26192;BME280;13935;55.672;37.764;2022-09-03T06:26:22;100766.25;;;27.31;26.79
26192;BME280;13935;55.672;37.764;2022-09-03T06:27:24;100773.47;;;27.91;26.00
26192;BME280;13935;55.672;37.764;2022-09-03T06:28:26;100779.72;;;27.31;26.35
26192;BME280;13935;55.672;37.764;2022-09-03T06:29:30;100776.94;;;26.68;27.46
26192;BME280;13935;55.672;37.764;2022-09-03T06:30:32;100772.63;;;27.58;26.55
26192;BME280;13935;55.672;37.764;2022-09-03T06:31:35;100781.81;;;28.65;25.22
26192;BME280;13935;55.672;37.764;2022-09-03T06:32:47;100786.09;;;26.81;26.87
26192;BME280;13935;55.672;37.764;2022-09-03T06:33:53;100781.72;;;25.96;28.88
26192;BME280;13935;55.672;37.764;2022-09-03T06:34:57;100778.34;;;25.80;28.86
26192;BME280;13935;55.672;37.764;2022-09-03T06:36:00;100785.59;;;26.73;27.44
26192;BME280;13935;55.672;37.764;2022-09-03T06:37:07;100788.00;;;26.57;27.18
26192;BME280;13935;55.672;37.764;2022-09-03T06:38:09;100779.75;;;26.41;27.71
26192;BME280;13935;55.672;37.764;2022-09-03T06:39:14;100787.75;;;27.32;26.82
26192;BME280;13935;55.672;37.764;2022-09-03T06:40:16;100782.56;;;28.04;26.19
26192;BME280;13935;55.672;37.764;2022-09-03T06:41:28;100789.78;;;28.98;24.64
26192;BME280;13935;55.672;37.764;2022-09-03T06:42:32;100785.34;;;29.26;24.37
26192;BME280;13935;55.672;37.764;2022-09-03T06:43:38;100776.19;;;28.09;25.61